Time,TemperatureF,DewpointF,PressureIn,WindDirection,WindDirectionDegrees,WindSpeedMPH,WindSpeedGustMPH,Humidity,HourlyPrecipIn,Conditions,Clouds,dailyrainin,SoftwareType,DateUTC
2013-07-19 00:01:00,74.5,69.8,30.20,SSW,203,0.0,0.0,85,0.00,,,0.00,WUHU216HW,2013-07-19 04:01:00,
2013-07-19 00:02:00,74.5,69.8,30.20,SSW,203,0.0,0.0,85,0.00,,,0.00,WUHU216HW,2013-07-19 04:02:00,
2013-07-19 00:07:00,74.2,69.4,30.20,SSW,203,0.0,0.0,85,0.00,,,0.00,WUHU216HW,2013-07-19 04:07:00,
2013-07-19 00:12:00,74.2,69.8,30.20,SSW,203,0.0,0.0,86,0.00,,,0.00,WUHU216HW,2013-07-19 04:12:00,
2013-07-19 00:17:00,74.2,69.8,30.20,SSW,203,0.0,0.0,86,0.00,,,0.00,WUHU216HW,2013-07-19 04:17:00,
2013-07-19 00:22:00,74.0,69.6,30.20,SSW,203,0.0,0.0,86,0.00,,,0.00,WUHU216HW,2013-07-19 04:22:00,
2013-07-19 00:27:00,74.0,69.9,30.20,SSW,203,0.0,0.0,87,0.00,,,0.00,WUHU216HW,2013-07-19 04:27:00,
2013-07-19 00:32:00,73.8,69.8,30.20,NE,45,0.0,0.0,87,0.00,,,0.00,WUHU216HW,2013-07-19 04:32:00,
2013-07-19 00:37:00,73.8,69.8,30.20,NE,45,0.0,0.0,87,0.00,,,0.00,WUHU216HW,2013-07-19 04:37:00,
2013-07-19 00:42:00,73.8,69.8,30.20,NE,45,0.0,0.0,87,0.00,,,0.00,WUHU216HW,2013-07-19 04:42:00,
2013-07-19 00:48:00,73.6,69.6,30.20,NE,45,0.0,0.0,87,0.00,,,0.00,WUHU216HW,2013-07-19 04:48:00,
2013-07-19 00:53:00,73.4,69.4,30.20,NE,45,0.0,0.0,87,0.00,,,0.00,WUHU216HW,2013-07-19 04:53:00,
2013-07-19 00:58:00,73.3,68.9,30.20,NE,45,0.0,0.0,86,0.00,,,0.00,WUHU216HW,2013-07-19 04:58:00,
2013-07-19 01:03:00,73.1,69.0,30.20,WNW,293,0.0,0.0,87,0.00,,,0.00,WUHU216HW,2013-07-19 05:03:00,
2013-07-19 01:08:00,73.1,68.7,30.20,NW,315,0.0,0.0,86,0.00,,,0.00,WUHU216HW,2013-07-19 05:08:00,
2013-07-19 01:13:00,73.1,68.7,30.20,West,270,0.0,0.0,86,0.00,,,0.00,WUHU216HW,2013-07-19 05:13:00,
2013-07-19 01:18:00,72.9,68.5,30.20,WSW,248,0.0,0.0,86,0.00,,,0.00,WUHU216HW,2013-07-19 05:18:00,
2013-07-19 01:23:00,72.9,68.9,30.19,West,270,0.0,0.0,87,0.00,,,0.00,WUHU216HW,2013-07-19 05:23:00,
2013-07-19 01:28:00,72.7,68.7,30.19,WSW,248,0.0,0.0,87,0.00,,,0.00,WUHU216HW,2013-07-19 05:28:00,
2013-07-19 01:33:00,72.7,68.7,30.19,SW,225,0.0,0.0,87,0.00,,,0.00,WUHU216HW,2013-07-19 05:33:00,
2013-07-19 01:38:00,72.7,68.7,30.19,SSE,158,0.0,0.0,87,0.00,,,0.00,WUHU216HW,2013-07-19 05:38:00,
2013-07-19 01:43:00,72.9,68.9,30.19,SW,225,0.0,0.0,87,0.00,,,0.00,WUHU216HW,2013-07-19 05:43:00,
2013-07-19 01:49:00,73.1,69.7,30.18,SW,225,0.0,0.0,89,0.00,,,0.00,WUHU216HW,2013-07-19 05:49:00,
2013-07-19 01:54:00,73.1,69.7,30.18,WSW,248,0.0,0.0,89,0.00,,,0.00,WUHU216HW,2013-07-19 05:54:00,
2013-07-19 01:59:00,73.1,69.3,30.18,WSW,248,0.0,0.0,88,0.00,,,0.00,WUHU216HW,2013-07-19 05:59:00,
2013-07-19 02:04:00,73.1,69.3,30.18,West,270,0.0,0.0,88,0.00,,,0.00,WUHU216HW,2013-07-19 06:04:00,
2013-07-19 02:09:00,73.1,69.3,30.18,West,270,0.0,0.0,88,0.00,,,0.00,WUHU216HW,2013-07-19 06:09:00,
2013-07-19 02:14:00,73.1,69.0,30.19,West,270,0.0,0.0,87,0.00,,,0.00,WUHU216HW,2013-07-19 06:14:00,
2013-07-19 02:19:00,73.1,69.3,30.18,West,270,0.0,0.0,88,0.00,,,0.00,WUHU216HW,2013-07-19 06:19:00,
2013-07-19 02:24:00,72.9,69.1,30.19,West,270,0.0,0.0,88,0.00,,,0.00,WUHU216HW,2013-07-19 06:24:00,
2013-07-19 02:29:00,72.9,69.1,30.18,West,270,0.0,0.0,88,0.00,,,0.00,WUHU216HW,2013-07-19 06:29:00,
2013-07-19 02:34:00,72.7,68.9,30.18,West,270,0.0,0.0,88,0.00,,,0.00,WUHU216HW,2013-07-19 06:34:00,
2013-07-19 02:39:00,72.7,68.9,30.18,West,270,0.0,0.0,88,0.00,,,0.00,WUHU216HW,2013-07-19 06:39:00,
2013-07-19 02:45:00,72.7,68.9,30.18,West,270,0.0,0.0,88,0.00,,,0.00,WUHU216HW,2013-07-19 06:45:00,
2013-07-19 02:50:00,72.7,68.9,30.17,West,270,0.0,0.0,88,0.00,,,0.00,WUHU216HW,2013-07-19 06:50:00,
2013-07-19 02:55:00,72.5,68.8,30.17,WSW,248,0.0,0.0,88,0.00,,,0.00,WUHU216HW,2013-07-19 06:55:00,
2013-07-19 03:00:00,72.4,68.6,30.17,WSW,248,0.0,0.0,88,0.00,,,0.00,WUHU216HW,2013-07-19 07:00:00,
2013-07-19 03:05:00,72.4,68.6,30.17,WSW,248,0.0,0.0,88,0.00,,,0.00,WUHU216HW,2013-07-19 07:05:00,
2013-07-19 03:10:00,72.4,68.6,30.17,SW,225,0.0,0.0,88,0.00,,,0.00,WUHU216HW,2013-07-19 07:10:00,
2013-07-19 03:15:00,72.4,68.6,30.17,SSW,203,0.0,0.0,88,0.00,,,0.00,WUHU216HW,2013-07-19 07:15:00,
2013-07-19 03:20:00,72.4,68.6,30.17,SSE,158,0.0,0.0,88,0.00,,,0.00,WUHU216HW,2013-07-19 07:20:00,
2013-07-19 03:26:00,72.4,68.6,30.17,SSE,158,0.0,0.0,88,0.00,,,0.00,WUHU216HW,2013-07-19 07:26:00,
2013-07-19 03:31:00,72.4,68.6,30.16,SSE,158,0.0,0.0,88,0.00,,,0.00,WUHU216HW,2013-07-19 07:31:00,
2013-07-19 03:36:00,72.4,68.9,30.16,ENE,68,0.0,0.0,89,0.00,,,0.00,WUHU216HW,2013-07-19 07:36:00,
2013-07-19 03:41:00,72.4,68.9,30.17,NE,45,0.0,0.0,89,0.00,,,0.00,WUHU216HW,2013-07-19 07:41:00,
2013-07-19 03:46:00,72.2,68.8,30.17,NE,45,0.0,0.0,89,0.00,,,0.00,WUHU216HW,2013-07-19 07:46:00,
2013-07-19 03:51:00,72.2,68.8,30.17,NE,45,0.0,0.0,89,0.00,,,0.00,WUHU216HW,2013-07-19 07:51:00,
2013-07-19 03:56:00,71.8,68.0,30.17,NE,45,0.0,0.0,88,0.00,,,0.00,WUHU216HW,2013-07-19 07:56:00,
2013-07-19 04:01:00,71.6,67.9,30.17,NE,45,0.0,0.0,88,0.00,,,0.00,WUHU216HW,2013-07-19 08:01:00,
2013-07-19 04:06:00,71.6,67.9,30.17,NE,45,0.0,0.0,88,0.00,,,0.00,WUHU216HW,2013-07-19 08:06:00,
2013-07-19 04:11:00,71.5,67.7,30.17,NE,45,0.0,0.0,88,0.00,,,0.00,WUHU216HW,2013-07-19 08:11:00,
2013-07-19 04:16:00,71.5,68.0,30.16,NE,45,0.0,0.0,89,0.00,,,0.00,WUHU216HW,2013-07-19 08:16:00,
2013-07-19 04:21:00,71.3,67.9,30.17,North,0,0.0,0.0,89,0.00,,,0.00,WUHU216HW,2013-07-19 08:21:00,
2013-07-19 04:26:00,71.3,67.9,30.16,NNE,23,0.0,0.0,89,0.00,,,0.00,WUHU216HW,2013-07-19 08:26:00,
2013-07-19 04:31:00,71.3,67.9,30.16,NNE,23,0.0,0.0,89,0.00,,,0.00,WUHU216HW,2013-07-19 08:31:00,
2013-07-19 04:36:00,71.1,67.7,30.16,SSE,158,0.0,0.0,89,0.00,,,0.00,WUHU216HW,2013-07-19 08:36:00,
2013-07-19 04:41:00,70.9,67.5,30.17,SSE,158,0.0,0.0,89,0.00,,,0.00,WUHU216HW,2013-07-19 08:41:00,
2013-07-19 04:46:00,70.9,67.5,30.17,SSE,158,0.0,0.0,89,0.00,,,0.00,WUHU216HW,2013-07-19 08:46:00,
2013-07-19 04:51:00,70.9,67.5,30.16,SSE,158,0.0,0.0,89,0.00,,,0.00,WUHU216HW,2013-07-19 08:51:00,
2013-07-19 04:56:00,70.7,67.3,30.16,SSE,158,0.0,0.0,89,0.00,,,0.00,WUHU216HW,2013-07-19 08:56:00,
2013-07-19 05:02:00,70.7,67.3,30.16,South,180,0.0,0.0,89,0.00,,,0.00,WUHU216HW,2013-07-19 09:02:00,
2013-07-19 05:07:00,70.6,67.1,30.16,SSE,158,0.0,0.0,89,0.00,,,0.00,WUHU216HW,2013-07-19 09:07:00,
2013-07-19 05:12:00,70.6,67.1,30.16,SSE,158,0.0,0.0,89,0.00,,,0.00,WUHU216HW,2013-07-19 09:12:00,
2013-07-19 05:17:00,70.6,67.5,30.16,SSE,158,0.0,0.0,90,0.00,,,0.00,WUHU216HW,2013-07-19 09:17:00,
2013-07-19 05:22:00,70.6,67.5,30.16,SSE,158,0.0,0.0,90,0.00,,,0.00,WUHU216HW,2013-07-19 09:22:00,
2013-07-19 05:27:00,70.6,67.5,30.16,South,180,0.0,0.0,90,0.00,,,0.00,WUHU216HW,2013-07-19 09:27:00,
2013-07-19 05:32:00,70.6,67.5,30.16,SSW,203,0.0,0.0,90,0.00,,,0.00,WUHU216HW,2013-07-19 09:32:00,
2013-07-19 05:37:00,70.6,67.5,30.16,SSW,203,0.0,0.0,90,0.00,,,0.00,WUHU216HW,2013-07-19 09:37:00,
2013-07-19 05:42:00,70.6,67.5,30.16,SSW,203,0.0,0.0,90,0.00,,,0.00,WUHU216HW,2013-07-19 09:42:00,
2013-07-19 05:47:00,70.6,67.5,30.16,SW,225,0.0,0.0,90,0.00,,,0.00,WUHU216HW,2013-07-19 09:47:00,
2013-07-19 05:52:00,70.6,67.5,30.16,SW,225,0.0,0.0,90,0.00,,,0.00,WUHU216HW,2013-07-19 09:52:00,
2013-07-19 05:57:00,70.6,67.5,30.16,SW,225,0.0,0.0,90,0.00,,,0.00,WUHU216HW,2013-07-19 09:57:00,
2013-07-19 06:02:00,70.6,67.5,30.16,SSW,203,0.0,0.0,90,0.00,,,0.00,WUHU216HW,2013-07-19 10:02:00,
2013-07-19 06:08:00,70.6,67.5,30.16,SW,225,0.0,0.0,90,0.00,,,0.00,WUHU216HW,2013-07-19 10:08:00,
2013-07-19 06:13:00,70.6,67.5,30.16,WSW,248,0.0,0.0,90,0.00,,,0.00,WUHU216HW,2013-07-19 10:13:00,
2013-07-19 06:18:00,70.6,67.5,30.16,SW,225,0.0,0.0,90,0.00,,,0.00,WUHU216HW,2013-07-19 10:18:00,
2013-07-19 06:23:00,70.4,67.3,30.17,SW,225,0.0,0.0,90,0.00,,,0.00,WUHU216HW,2013-07-19 10:23:00,
2013-07-19 06:28:00,70.4,67.3,30.17,SW,225,0.0,0.0,90,0.00,,,0.00,WUHU216HW,2013-07-19 10:28:00,
2013-07-19 06:33:00,70.6,67.8,30.17,SW,225,0.0,0.0,91,0.00,,,0.00,WUHU216HW,2013-07-19 10:33:00,
2013-07-19 06:38:00,70.6,67.8,30.17,SSW,203,0.0,0.0,91,0.00,,,0.00,WUHU216HW,2013-07-19 10:38:00,
2013-07-19 06:43:00,70.6,67.8,30.17,South,180,0.0,0.0,91,0.00,,,0.00,WUHU216HW,2013-07-19 10:43:00,
2013-07-19 06:48:00,70.6,67.8,30.17,SSE,158,0.0,0.0,91,0.00,,,0.00,WUHU216HW,2013-07-19 10:48:00,
2013-07-19 06:53:00,70.6,67.8,30.17,South,180,0.0,0.0,91,0.00,,,0.00,WUHU216HW,2013-07-19 10:53:00,
2013-07-19 06:59:00,70.7,68.0,30.17,SE,135,0.0,0.0,91,0.00,,,0.00,WUHU216HW,2013-07-19 10:59:00,
2013-07-19 07:04:00,70.7,68.0,30.17,SSE,158,0.0,0.0,91,0.00,,,0.00,WUHU216HW,2013-07-19 11:04:00,
2013-07-19 07:09:00,70.9,68.1,30.17,South,180,0.0,0.0,91,0.00,,,0.00,WUHU216HW,2013-07-19 11:09:00,
2013-07-19 07:14:00,71.3,68.5,30.17,SSW,203,0.0,0.0,91,0.00,,,0.00,WUHU216HW,2013-07-19 11:14:00,
2013-07-19 07:19:00,71.3,68.5,30.17,SSE,158,0.0,0.0,91,0.00,,,0.00,WUHU216HW,2013-07-19 11:19:00,
2013-07-19 07:24:00,71.5,68.7,30.17,SSE,158,0.0,0.0,91,0.00,,,0.00,WUHU216HW,2013-07-19 11:24:00,
2013-07-19 07:29:00,71.6,68.9,30.17,SSE,158,1.8,1.8,91,0.00,,,0.00,WUHU216HW,2013-07-19 11:29:00,
2013-07-19 07:34:00,72.0,69.2,30.17,SSE,158,1.1,1.8,91,0.00,,,0.00,WUHU216HW,2013-07-19 11:34:00,
2013-07-19 07:39:00,72.4,69.6,30.17,South,180,1.3,1.8,91,0.00,,,0.00,WUHU216HW,2013-07-19 11:39:00,
2013-07-19 07:45:00,72.5,69.8,30.18,SSE,158,2.5,2.5,91,0.00,,,0.00,WUHU216HW,2013-07-19 11:45:00,
2013-07-19 07:50:00,72.7,69.7,30.18,ESE,113,0.4,2.5,90,0.00,,,0.00,WUHU216HW,2013-07-19 11:50:00,
2013-07-19 07:55:00,73.1,70.0,30.18,West,270,2.5,2.5,90,0.00,,,0.00,WUHU216HW,2013-07-19 11:55:00,
2013-07-19 08:00:00,73.4,70.7,30.18,SW,225,1.6,2.5,91,0.00,,,0.00,WUHU216HW,2013-07-19 12:00:00,
2013-07-19 08:05:00,73.6,70.8,30.18,WSW,248,1.6,2.5,91,0.00,,,0.00,WUHU216HW,2013-07-19 12:05:00,
2013-07-19 08:10:00,74.0,71.2,30.18,WNW,293,1.3,1.8,91,0.00,,,0.00,WUHU216HW,2013-07-19 12:10:00,
2013-07-19 08:15:00,74.3,71.6,30.19,WSW,248,3.4,3.4,91,0.00,,,0.00,WUHU216HW,2013-07-19 12:15:00,
2013-07-19 08:20:00,75.6,72.8,30.19,WSW,249,2.9,3.4,91,0.00,,,0.00,WUHU216HW,2013-07-19 12:20:00,
2013-07-19 08:26:00,78.5,75.1,30.19,SSE,158,1.3,3.4,89,0.00,,,0.00,WUHU216HW,2013-07-19 12:26:00,
2013-07-19 08:31:00,80.6,76.4,30.20,WSW,248,2.0,2.5,87,0.00,,,0.00,WUHU216HW,2013-07-19 12:31:00,
2013-07-19 08:36:00,83.3,78.0,30.20,SW,225,1.8,2.0,84,0.00,,,0.00,WUHU216HW,2013-07-19 12:36:00,
2013-07-19 08:41:00,85.1,79.0,30.19,NW,315,3.1,4.7,82,0.00,,,0.00,WUHU216HW,2013-07-19 12:41:00,
2013-07-19 08:46:00,86.0,78.4,30.20,WSW,248,3.4,4.7,78,0.00,,,0.00,WUHU216HW,2013-07-19 12:46:00,
2013-07-19 08:51:00,86.4,78.8,30.20,WSW,241,2.5,3.4,78,0.00,,,0.00,WUHU216HW,2013-07-19 12:51:00,
2013-07-19 08:56:00,86.9,78.5,30.20,WSW,244,1.5,3.4,76,0.00,,,0.00,WUHU216HW,2013-07-19 12:56:00,
2013-07-19 09:01:00,87.1,78.2,30.20,South,180,2.5,2.5,75,0.00,,,0.00,WUHU216HW,2013-07-19 13:01:00,
2013-07-19 09:06:00,86.4,77.6,30.20,SE,135,2.5,2.5,75,0.00,,,0.00,WUHU216HW,2013-07-19 13:06:00,
2013-07-19 09:11:00,86.0,77.6,30.20,South,180,2.0,2.5,76,0.00,,,0.00,WUHU216HW,2013-07-19 13:11:00,
2013-07-19 09:16:00,85.5,76.7,30.20,SSW,203,2.7,2.7,75,0.00,,,0.00,WUHU216HW,2013-07-19 13:16:00,
2013-07-19 09:22:00,85.1,76.7,30.20,SW,225,4.7,4.7,76,0.00,,,0.00,WUHU216HW,2013-07-19 13:22:00,
2013-07-19 09:26:00,85.0,76.5,30.20,SW,225,3.1,4.7,76,0.00,,,0.00,WUHU216HW,2013-07-19 13:26:00,
2013-07-19 09:31:00,85.0,76.5,30.20,South,180,3.6,4.7,76,0.00,,,0.00,WUHU216HW,2013-07-19 13:31:00,
2013-07-19 09:36:00,85.1,76.7,30.20,WSW,248,3.6,3.6,76,0.00,,,0.00,WUHU216HW,2013-07-19 13:36:00,
2013-07-19 09:41:00,85.3,76.9,30.20,SW,225,1.3,3.6,76,0.00,,,0.00,WUHU216HW,2013-07-19 13:41:00,
2013-07-19 09:46:00,85.7,77.2,30.20,WSW,248,4.5,4.5,76,0.00,,,0.00,WUHU216HW,2013-07-19 13:46:00,
2013-07-19 09:52:00,85.7,76.9,30.20,WSW,248,2.9,4.7,75,0.00,,,0.00,WUHU216HW,2013-07-19 13:52:00,
2013-07-19 09:57:00,85.7,77.2,30.20,South,180,3.4,4.7,76,0.00,,,0.00,WUHU216HW,2013-07-19 13:57:00,
2013-07-19 10:02:00,86.2,77.8,30.20,SW,225,4.7,4.7,76,0.00,,,0.00,WUHU216HW,2013-07-19 14:02:00,
2013-07-19 10:07:00,86.4,77.1,30.20,West,270,2.7,4.7,74,0.00,,,0.00,WUHU216HW,2013-07-19 14:07:00,
2013-07-19 10:12:00,86.4,77.1,30.20,South,180,3.6,3.6,74,0.00,,,0.00,WUHU216HW,2013-07-19 14:12:00,
2013-07-19 10:17:00,86.9,78.0,30.20,SW,225,1.3,3.6,75,0.00,,,0.00,WUHU216HW,2013-07-19 14:17:00,
2013-07-19 10:22:00,87.3,77.2,30.20,SW,225,4.3,4.3,72,0.00,,,0.00,WUHU216HW,2013-07-19 14:22:00,
2013-07-19 10:27:00,87.1,77.4,30.20,SSW,204,2.0,4.3,73,0.00,,,0.00,WUHU216HW,2013-07-19 14:27:00,
2013-07-19 10:32:00,86.9,76.9,30.20,WSW,248,2.5,4.3,72,0.00,,,0.00,WUHU216HW,2013-07-19 14:32:00,
2013-07-19 10:37:00,86.8,76.7,30.20,SW,225,3.4,3.4,72,0.00,,,0.00,WUHU216HW,2013-07-19 14:37:00,
2013-07-19 10:42:00,86.4,77.1,30.20,WSW,248,3.6,3.6,74,0.00,,,0.00,WUHU216HW,2013-07-19 14:42:00,
2013-07-19 10:47:00,86.6,76.5,30.20,WSW,258,1.7,3.6,72,0.00,,,0.00,WUHU216HW,2013-07-19 14:47:00,
2013-07-19 10:52:00,86.4,76.3,30.20,WSW,248,5.6,5.6,72,0.00,,,0.00,WUHU216HW,2013-07-19 14:52:00,
2013-07-19 10:57:00,86.8,77.1,30.20,WSW,248,2.5,5.6,73,0.00,,,0.00,WUHU216HW,2013-07-19 14:57:00,
2013-07-19 11:02:00,87.7,78.0,30.20,SSE,161,5.2,5.6,73,0.00,,,0.00,WUHU216HW,2013-07-19 15:02:00,
2013-07-19 11:08:00,88.4,78.2,30.20,SSE,165,2.2,5.4,72,0.00,,,0.00,WUHU216HW,2013-07-19 15:08:00,
2013-07-19 11:13:00,88.4,77.0,30.20,SW,225,3.4,5.4,69,0.00,,,0.00,WUHU216HW,2013-07-19 15:13:00,
2013-07-19 11:18:00,88.6,77.1,30.20,SW,225,7.2,7.2,69,0.00,,,0.00,WUHU216HW,2013-07-19 15:18:00,
2013-07-19 11:23:00,88.2,76.3,30.20,SW,225,8.1,8.1,68,0.00,,,0.00,WUHU216HW,2013-07-19 15:23:00,
2013-07-19 11:28:00,87.1,76.6,30.20,SW,225,4.7,8.1,71,0.00,,,0.00,WUHU216HW,2013-07-19 15:28:00,
2013-07-19 11:33:00,88.2,78.0,30.20,WSW,248,2.9,8.1,72,0.00,,,0.00,WUHU216HW,2013-07-19 15:33:00,
2013-07-19 11:38:00,89.1,78.1,30.20,WSW,248,3.8,4.7,70,0.00,,,0.00,WUHU216HW,2013-07-19 15:38:00,
2013-07-19 11:43:00,89.5,78.0,30.20,South,180,3.4,3.8,69,0.00,,,0.00,WUHU216HW,2013-07-19 15:43:00,
2013-07-19 11:48:00,90.7,78.7,30.20,SW,225,4.9,4.9,68,0.00,,,0.00,WUHU216HW,2013-07-19 15:48:00,
2013-07-19 11:53:00,91.1,78.6,30.20,South,180,7.6,7.6,67,0.00,,,0.00,WUHU216HW,2013-07-19 15:53:00,
2013-07-19 11:58:00,91.4,78.8,30.20,SSE,158,4.3,7.6,67,0.00,,,0.00,WUHU216HW,2013-07-19 15:58:00,
2013-07-19 12:03:00,91.8,77.9,30.20,SSE,158,6.3,7.6,64,0.00,,,0.00,WUHU216HW,2013-07-19 16:03:00,
2013-07-19 12:09:00,91.6,77.2,30.19,WSW,239,3.1,6.3,63,0.00,,,0.00,WUHU216HW,2013-07-19 16:09:00,
2013-07-19 12:14:00,92.2,78.7,30.19,SSE,158,3.4,6.3,65,0.00,,,0.00,WUHU216HW,2013-07-19 16:14:00,
2013-07-19 12:19:00,92.3,77.4,30.19,SW,225,4.5,4.5,62,0.00,,,0.00,WUHU216HW,2013-07-19 16:19:00,
2013-07-19 12:24:00,91.8,76.0,30.19,West,270,3.8,5.1,60,0.00,,,0.00,WUHU216HW,2013-07-19 16:24:00,
2013-07-19 12:29:00,91.8,77.4,30.19,South,180,6.0,6.0,63,0.00,,,0.00,WUHU216HW,2013-07-19 16:29:00,
2013-07-19 12:34:00,92.3,78.4,30.19,SW,225,5.4,6.0,64,0.00,,,0.00,WUHU216HW,2013-07-19 16:34:00,
2013-07-19 12:39:00,92.3,75.4,30.18,WSW,248,6.0,6.0,58,0.00,,,0.00,WUHU216HW,2013-07-19 16:39:00,
2013-07-19 12:44:00,92.3,77.4,30.18,SW,225,6.3,6.3,62,0.00,,,0.00,WUHU216HW,2013-07-19 16:44:00,
2013-07-19 12:49:00,92.5,76.2,30.18,SSE,165,6.7,7.2,59,0.00,,,0.00,WUHU216HW,2013-07-19 16:49:00,
2013-07-19 12:54:00,91.6,76.2,30.18,WSW,239,3.8,7.2,61,0.00,,,0.00,WUHU216HW,2013-07-19 16:54:00,
2013-07-19 12:59:00,91.3,75.4,30.18,WSW,248,5.8,5.8,60,0.00,,,0.00,WUHU216HW,2013-07-19 16:59:00,
2013-07-19 13:04:00,90.4,75.6,30.18,WSW,248,6.9,6.9,62,0.00,,,0.00,WUHU216HW,2013-07-19 17:04:00,
2013-07-19 13:09:00,90.4,76.1,30.18,WSW,248,1.6,6.9,63,0.00,,,0.00,WUHU216HW,2013-07-19 17:09:00,
2013-07-19 13:14:00,90.0,75.7,30.17,WSW,248,4.3,6.9,63,0.00,,,0.00,WUHU216HW,2013-07-19 17:14:00,
2013-07-19 13:19:00,90.4,76.5,30.17,SSE,158,6.3,6.3,64,0.00,,,0.00,WUHU216HW,2013-07-19 17:19:00,
2013-07-19 13:25:00,91.3,76.9,30.17,WSW,248,4.5,6.3,63,0.00,,,0.00,WUHU216HW,2013-07-19 17:25:00,
2013-07-19 13:30:00,91.4,77.1,30.17,WSW,248,4.0,6.3,63,0.00,,,0.00,WUHU216HW,2013-07-19 17:30:00,
2013-07-19 13:35:00,91.4,75.6,30.17,WSW,248,5.4,5.4,60,0.00,,,0.00,WUHU216HW,2013-07-19 17:35:00,
2013-07-19 13:40:00,91.4,76.5,30.16,SSE,158,0.4,5.4,62,0.00,,,0.00,WUHU216HW,2013-07-19 17:40:00,
2013-07-19 13:45:00,90.9,76.5,30.16,SSW,203,2.5,5.4,63,0.00,,,0.00,WUHU216HW,2013-07-19 17:45:00,
2013-07-19 13:50:00,91.4,77.1,30.16,SW,225,3.1,3.1,63,0.00,,,0.00,WUHU216HW,2013-07-19 17:50:00,
2013-07-19 13:54:00,92.2,77.2,30.15,WSW,248,1.1,3.1,62,0.00,,,0.00,WUHU216HW,2013-07-19 17:54:00,
2013-07-19 14:00:00,92.2,77.2,30.15,South,180,2.9,3.1,62,0.00,,,0.00,WUHU216HW,2013-07-19 18:00:00,
2013-07-19 14:05:00,92.9,77.5,30.15,SSE,158,6.3,6.3,61,0.00,,,0.00,WUHU216HW,2013-07-19 18:05:00,
2013-07-19 14:10:00,93.2,76.9,30.15,SW,229,2.9,6.3,59,0.00,,,0.00,WUHU216HW,2013-07-19 18:10:00,
2013-07-19 17:02:00,91.6,74.7,30.10,WSW,248,2.5,5.4,58,0.00,,,0.00,WUHU216HW,2013-07-19 21:02:00,
2013-07-19 17:07:00,91.1,74.7,30.10,West,270,3.4,3.4,59,0.00,,,0.00,WUHU216HW,2013-07-19 21:07:00,
2013-07-19 17:12:00,91.8,75.4,30.10,SSW,203,7.8,7.8,59,0.00,,,0.00,WUHU216HW,2013-07-19 21:12:00,
2013-07-19 17:17:00,92.0,75.1,30.10,South,179,6.0,7.8,58,0.00,,,0.00,WUHU216HW,2013-07-19 21:17:00,
2013-07-19 17:23:00,91.3,74.3,30.10,South,180,5.1,7.8,58,0.00,,,0.00,WUHU216HW,2013-07-19 21:23:00,
2013-07-19 17:28:00,90.7,75.0,30.10,South,180,6.3,6.3,60,0.00,,,0.00,WUHU216HW,2013-07-19 21:28:00,
2013-07-19 17:33:00,91.1,75.2,30.09,South,189,4.2,6.3,60,0.00,,,0.00,WUHU216HW,2013-07-19 21:33:00,
2013-07-19 17:38:00,91.1,75.2,30.09,SSW,203,7.8,7.8,60,0.00,,,0.00,WUHU216HW,2013-07-19 21:38:00,
2013-07-19 17:43:00,90.9,75.2,30.08,South,180,5.1,7.8,60,0.00,,,0.00,WUHU216HW,2013-07-19 21:43:00,
2013-07-19 17:48:00,90.4,74.6,30.08,South,180,7.4,7.8,60,0.00,,,0.00,WUHU216HW,2013-07-19 21:48:00,
2013-07-19 17:53:00,90.0,74.4,30.08,SSW,202,6.6,8.1,60,0.00,,,0.00,WUHU216HW,2013-07-19 21:53:00,
2013-07-19 17:58:00,89.8,74.2,30.08,SSW,213,5.7,8.1,60,0.00,,,0.00,WUHU216HW,2013-07-19 21:58:00,
2013-07-19 18:03:00,90.0,74.4,30.08,SSE,165,3.5,6.3,60,0.00,,,0.00,WUHU216HW,2013-07-19 22:03:00,
2013-07-19 18:09:00,89.8,74.2,30.08,South,180,7.2,7.2,60,0.00,,,0.00,WUHU216HW,2013-07-19 22:09:00,
2013-07-19 18:14:00,89.6,74.0,30.07,SSE,158,5.4,7.2,60,0.00,,,0.00,WUHU216HW,2013-07-19 22:14:00,
2013-07-19 18:19:00,89.3,74.2,30.07,SSW,192,4.5,7.2,61,0.00,,,0.00,WUHU216HW,2013-07-19 22:19:00,
2013-07-19 18:24:00,89.1,74.0,30.07,SSW,203,3.8,6.0,61,0.00,,,0.00,WUHU216HW,2013-07-19 22:24:00,
2013-07-19 18:29:00,89.3,74.2,30.07,South,180,7.6,7.6,61,0.00,,,0.00,WUHU216HW,2013-07-19 22:29:00,
2013-07-19 18:34:00,89.1,74.4,30.08,SW,225,2.5,7.6,62,0.00,,,0.00,WUHU216HW,2013-07-19 22:34:00,
2013-07-19 18:39:00,89.3,74.6,30.07,SE,135,4.0,7.6,62,0.00,,,0.00,WUHU216HW,2013-07-19 22:39:00,
2013-07-19 18:44:00,89.3,74.6,30.07,SSW,203,5.1,5.1,62,0.00,,,0.00,WUHU216HW,2013-07-19 22:44:00,
2013-07-19 18:50:00,88.9,74.3,30.07,SSE,158,7.4,7.4,62,0.00,,,0.00,WUHU216HW,2013-07-19 22:50:00,
2013-07-19 18:55:00,88.7,74.1,30.08,South,180,5.6,7.4,62,0.00,,,0.00,WUHU216HW,2013-07-19 22:55:00,
2013-07-19 19:00:00,88.7,74.5,30.08,SSW,203,4.9,7.4,63,0.00,,,0.00,WUHU216HW,2013-07-19 23:00:00,
2013-07-19 19:05:00,88.4,74.3,30.08,SSE,158,2.2,5.6,63,0.00,,,0.00,WUHU216HW,2013-07-19 23:05:00,
2013-07-19 19:10:00,88.0,74.4,30.08,South,180,0.4,4.9,64,0.00,,,0.00,WUHU216HW,2013-07-19 23:10:00,
2013-07-19 19:15:00,87.5,73.8,30.08,South,180,1.8,2.2,64,0.00,,,0.00,WUHU216HW,2013-07-19 23:15:00,
2013-07-19 19:20:00,87.3,74.5,30.08,South,180,4.3,4.3,66,0.00,,,0.00,WUHU216HW,2013-07-19 23:20:00,
2013-07-19 19:26:00,88.4,75.2,30.08,South,170,2.5,4.3,65,0.00,,,0.00,WUHU216HW,2013-07-19 23:26:00,
2013-07-19 19:31:00,88.9,75.2,30.08,SSE,158,2.7,3.6,64,0.00,,,0.00,WUHU216HW,2013-07-19 23:31:00,
2013-07-19 19:36:00,88.6,74.9,30.08,SSE,158,1.8,2.7,64,0.00,,,0.00,WUHU216HW,2013-07-19 23:36:00,
2013-07-19 19:41:00,87.5,73.8,30.08,SSE,158,4.5,4.5,64,0.00,,,0.00,WUHU216HW,2013-07-19 23:41:00,
2013-07-19 19:46:00,85.9,73.2,30.08,South,179,3.9,4.5,66,0.00,,,0.00,WUHU216HW,2013-07-19 23:46:00,
2013-07-19 19:51:00,85.1,73.0,30.08,SSW,203,2.5,4.5,67,0.00,,,0.00,WUHU216HW,2013-07-19 23:51:00,
2013-07-19 19:57:00,84.6,72.9,30.08,South,180,1.1,2.5,68,0.00,,,0.00,WUHU216HW,2013-07-19 23:57:00,
2013-07-19 20:02:00,84.1,72.8,30.08,South,180,1.1,2.5,69,0.00,,,0.00,WUHU216HW,2013-07-20 00:02:00,
2013-07-19 20:07:00,83.2,72.8,30.08,South,180,0.7,1.1,71,0.00,,,0.00,WUHU216HW,2013-07-20 00:07:00,
2013-07-19 20:12:00,83.0,72.6,30.08,SE,135,0.0,1.1,71,0.00,,,0.00,WUHU216HW,2013-07-20 00:12:00,
2013-07-19 20:17:00,82.1,72.2,30.09,South,180,0.7,1.1,72,0.00,,,0.00,WUHU216HW,2013-07-20 00:17:00,
2013-07-19 20:22:00,81.7,71.8,30.09,South,180,1.8,1.8,72,0.00,,,0.00,WUHU216HW,2013-07-20 00:22:00,
2013-07-19 20:28:00,81.4,71.5,30.09,SSE,158,1.8,1.8,72,0.00,,,0.00,WUHU216HW,2013-07-20 00:28:00,
2013-07-19 20:33:00,81.0,71.6,30.09,SSE,158,1.1,1.8,73,0.00,,,0.00,WUHU216HW,2013-07-20 00:33:00,
2013-07-19 20:38:00,80.6,71.7,30.08,SSE,158,1.1,1.8,74,0.00,,,0.00,WUHU216HW,2013-07-20 00:38:00,
2013-07-19 20:43:00,80.3,71.6,30.09,South,180,0.7,1.1,75,0.00,,,0.00,WUHU216HW,2013-07-20 00:43:00,
2013-07-19 20:48:00,80.1,71.5,30.09,South,180,1.6,1.6,75,0.00,,,0.00,WUHU216HW,2013-07-20 00:48:00,
2013-07-19 20:54:00,79.6,70.9,30.09,SSE,158,1.8,1.8,75,0.00,,,0.00,WUHU216HW,2013-07-20 00:54:00,
2013-07-19 20:59:00,79.4,71.1,30.09,SSE,158,1.1,1.8,76,0.00,,,0.00,WUHU216HW,2013-07-20 00:59:00,
2013-07-19 21:04:00,79.0,70.7,30.09,SE,135,0.2,1.1,76,0.00,,,0.00,WUHU216HW,2013-07-20 01:04:00,
2013-07-19 21:09:00,78.8,71.0,30.09,South,180,0.7,0.7,77,0.00,,,0.00,WUHU216HW,2013-07-20 01:09:00,
2013-07-19 21:14:00,78.7,70.8,30.09,SSE,158,0.7,0.7,77,0.00,,,0.00,WUHU216HW,2013-07-20 01:14:00,
2013-07-19 21:19:00,78.3,70.8,30.09,SSW,203,0.4,0.7,78,0.00,,,0.00,WUHU216HW,2013-07-20 01:19:00,
2013-07-19 21:24:00,78.1,70.7,30.09,SSW,203,0.4,0.7,78,0.00,,,0.00,WUHU216HW,2013-07-20 01:24:00,
2013-07-19 21:29:00,78.1,70.7,30.10,SSE,158,0.2,0.4,78,0.00,,,0.00,WUHU216HW,2013-07-20 01:29:00,
2013-07-19 21:34:00,77.9,70.9,30.10,South,180,0.4,0.4,79,0.00,,,0.00,WUHU216HW,2013-07-20 01:34:00,
2013-07-19 21:40:00,77.8,70.8,30.10,South,180,1.1,1.1,79,0.00,,,0.00,WUHU216HW,2013-07-20 01:40:00,
2013-07-19 21:45:00,77.4,70.7,30.10,South,180,0.7,1.1,80,0.00,,,0.00,WUHU216HW,2013-07-20 01:45:00,
2013-07-19 21:50:00,77.4,70.7,30.10,South,180,1.1,1.1,80,0.00,,,0.00,WUHU216HW,2013-07-20 01:50:00,
2013-07-19 21:55:00,77.0,70.7,30.10,SSE,158,0.4,1.1,81,0.00,,,0.00,WUHU216HW,2013-07-20 01:55:00,
2013-07-19 22:00:00,77.0,70.7,30.10,SE,135,0.0,1.1,81,0.00,,,0.00,WUHU216HW,2013-07-20 02:00:00,
2013-07-19 22:05:00,76.9,70.6,30.11,ESE,113,0.0,0.0,81,0.00,,,0.00,WUHU216HW,2013-07-20 02:05:00,
2013-07-19 22:10:00,76.9,70.6,30.11,SSW,203,0.7,0.7,81,0.00,,,0.00,WUHU216HW,2013-07-20 02:10:00,
2013-07-19 22:16:00,76.7,70.4,30.11,SSE,158,0.4,0.7,81,0.00,,,0.00,WUHU216HW,2013-07-20 02:16:00,
2013-07-19 22:21:00,76.5,70.3,30.11,SSW,203,0.7,0.7,81,0.00,,,0.00,WUHU216HW,2013-07-20 02:21:00,
2013-07-19 22:26:00,76.3,70.5,30.11,SSE,158,0.0,0.7,82,0.00,,,0.00,WUHU216HW,2013-07-20 02:26:00,
2013-07-19 22:31:00,76.3,70.5,30.12,SSE,158,0.0,0.7,82,0.00,,,0.00,WUHU216HW,2013-07-20 02:31:00,
2013-07-19 22:36:00,76.3,70.5,30.12,South,180,0.0,0.0,82,0.00,,,0.00,WUHU216HW,2013-07-20 02:36:00,
2013-07-19 22:41:00,76.3,70.5,30.12,SSE,158,0.0,0.0,82,0.00,,,0.00,WUHU216HW,2013-07-20 02:41:00,
2013-07-19 22:47:00,76.1,70.7,30.12,SE,135,0.0,0.0,83,0.00,,,0.00,WUHU216HW,2013-07-20 02:47:00,
2013-07-19 22:52:00,76.1,70.7,30.12,SE,135,0.0,0.0,83,0.00,,,0.00,WUHU216HW,2013-07-20 02:52:00,
2013-07-19 22:57:00,76.0,70.5,30.12,SE,135,0.0,0.0,83,0.00,,,0.00,WUHU216HW,2013-07-20 02:57:00,
2013-07-19 23:02:00,76.0,70.5,30.12,SSE,158,0.0,0.0,83,0.00,,,0.00,WUHU216HW,2013-07-20 03:02:00,
2013-07-19 23:07:00,75.6,70.1,30.12,SSE,158,0.0,0.0,83,0.00,,,0.00,WUHU216HW,2013-07-20 03:07:00,
2013-07-19 23:12:00,75.6,70.1,30.12,SW,225,0.0,0.0,83,0.00,,,0.00,WUHU216HW,2013-07-20 03:12:00,
2013-07-19 23:18:00,75.6,70.1,30.12,ESE,113,0.0,0.0,83,0.00,,,0.00,WUHU216HW,2013-07-20 03:18:00,
2013-07-19 23:23:00,75.4,70.3,30.13,ESE,113,0.0,0.0,84,0.00,,,0.00,WUHU216HW,2013-07-20 03:23:00,
2013-07-19 23:28:00,75.2,70.1,30.13,SW,225,0.0,0.0,84,0.00,,,0.00,WUHU216HW,2013-07-20 03:28:00,
2013-07-19 23:38:00,75.2,70.1,30.13,South,180,0.0,0.0,84,0.00,,,0.00,WUHU216HW,2013-07-20 03:38:00,
2013-07-19 23:57:00,74.9,70.1,30.13,SW,225,0.0,0.0,85,0.00,,,0.00,WUHU216HW,2013-07-20 03:57:00,